Time;durP1;ratioP1;P1;durP2;ratioP2;P2;SDS_P1;SDS_P2;PMS_P1;PMS_P2;Temp;Humidity;BMP_temperature;BMP_pressure;BME280_temperature;BME280_humidity;BME280_pressure;Samples;Min_cycle;Max_cycle;Signal;HPM_P1;HPM_P2
2021/07/18 00:01:10;;;;;;;5.13;4.63;;;;;;;18.09;93.84;98306.22;4988169;28;20761;-69
2021/07/18 00:03:38;;;;;;;6.63;4.97;;;;;;;18.06;93.33;98304.75;4980668;28;20240;-70
2021/07/18 00:06:06;;;;;;;5.93;4.20;;;;;;;18.08;92.39;98304.56;4986108;28;20202;-69
2021/07/18 00:08:34;;;;;;;8.70;4.60;;;;;;;18.05;92.34;98305.78;4982685;28;20205;-70
2021/07/18 00:11:02;;;;;;;4.47;4.07;;;;;;;18.03;92.11;98310.53;4983236;28;20220;-70
2021/07/18 00:13:32;;;;;;;5.47;4.33;;;;;;;17.97;91.96;98307.81;4983075;28;20232;-69
2021/07/18 00:16:00;;;;;;;4.63;4.23;;;;;;;17.95;91.74;98321.44;4984382;28;20629;-67
2021/07/18 00:18:28;;;;;;;5.50;4.00;;;;;;;17.97;91.70;98316.69;4986151;28;20230;-70
2021/07/18 00:20:55;;;;;;;5.67;4.57;;;;;;;17.88;91.57;98321.41;4985437;28;20209;-68
2021/07/18 00:23:23;;;;;;;4.57;3.63;;;;;;;17.90;91.06;98321.22;4984117;28;20240;-70
2021/07/18 00:25:51;;;;;;;3.83;3.53;;;;;;;17.79;91.83;98314.59;4982446;28;20505;-71
2021/07/18 00:28:19;;;;;;;6.13;4.07;;;;;;;17.79;91.23;98306.56;4980412;28;20213;-69
2021/07/18 00:30:49;;;;;;;4.93;3.70;;;;;;;17.77;91.02;98312.09;4989718;28;20206;-70
2021/07/18 00:33:17;;;;;;;4.23;3.77;;;;;;;17.69;91.05;98304.25;4983372;28;20225;-71
2021/07/18 00:35:44;;;;;;;4.47;4.17;;;;;;;17.68;91.14;98307.16;4984899;28;20232;-70
2021/07/18 00:38:12;;;;;;;6.13;3.70;;;;;;;17.65;90.70;98309.22;4987875;28;20209;-70
2021/07/18 00:40:40;;;;;;;4.17;3.77;;;;;;;17.63;90.64;98305.91;4985045;28;20213;-70
2021/07/18 00:43:09;;;;;;;6.40;4.07;;;;;;;17.53;91.11;98301.94;4985934;28;20812;-70
2021/07/18 00:45:37;;;;;;;5.70;3.93;;;;;;;17.53;91.56;98304.63;4983425;28;20206;-70
2021/07/18 00:48:07;;;;;;;4.10;3.50;;;;;;;17.40;91.91;98300.06;4986301;28;20217;-72
2021/07/18 00:50:35;;;;;;;4.60;3.60;;;;;;;17.34;92.55;98307.88;4979063;28;20205;-70
2021/07/18 00:53:03;;;;;;;3.90;3.30;;;;;;;17.29;92.19;98306.81;4986071;28;20225;-71
2021/07/18 00:55:31;;;;;;;5.00;4.30;;;;;;;17.30;92.13;98309.28;4985335;28;20206;-71
2021/07/18 00:57:59;;;;;;;6.67;3.57;;;;;;;17.26;91.75;98309.88;4984452;28;20202;-68
2021/07/18 01:00:27;;;;;;;4.00;3.40;;;;;;;17.21;91.98;98315.81;4986512;28;20232;-69
2021/07/18 01:02:55;;;;;;;6.13;4.03;;;;;;;17.19;91.58;98317.88;4984060;28;20280;-68
2021/07/18 01:05:25;;;;;;;4.63;4.10;;;;;;;17.21;91.31;98322.03;4982031;28;20209;-69
2021/07/18 01:07:53;;;;;;;3.13;2.80;;;;;;;17.13;91.65;98321.34;4982080;28;20209;-69
2021/07/18 01:10:21;;;;;;;6.00;3.47;;;;;;;17.07;92.18;98312.28;4985822;28;20205;-72
2021/07/18 01:12:49;;;;;;;6.87;3.77;;;;;;;17.01;92.21;98307.69;4988734;28;20293;-69
2021/07/18 01:15:36;;;;;;;3.40;3.17;;;;;;;17.02;92.50;98298.63;4983710;28;20205;-69
2021/07/18 01:18:05;;;;;;;6.27;3.70;;;;;;;16.92;92.62;98299.81;4984402;28;20229;-69
2021/07/18 01:20:34;;;;;;;5.37;3.50;;;;;;;16.87;92.80;98302.25;4985127;28;20257;-69
2021/07/18 01:23:04;;;;;;;2.97;2.73;;;;;;;16.79;92.41;98308.56;4981188;28;20236;-70
2021/07/18 01:25:34;;;;;;;3.83;3.23;;;;;;;16.74;93.11;98308.34;4980387;28;20206;-70
2021/07/18 01:28:03;;;;;;;4.53;3.00;;;;;;;16.73;92.32;98298.66;4980354;28;20220;-67
2021/07/18 01:30:31;;;;;;;7.23;3.93;;;;;;;16.70;92.50;98307.09;4981485;28;20240;-67
2021/07/18 01:32:58;;;;;;;6.93;3.10;;;;;;;16.64;92.58;98308.69;4981414;28;20672;-70
2021/07/18 01:35:27;;;;;;;5.40;2.70;;;;;;;16.67;91.77;98290.59;4982234;28;20211;-69
2021/07/18 01:37:55;;;;;;;6.40;3.00;;;;;;;16.63;91.52;98300.88;4982259;28;20688;-70
2021/07/18 01:40:25;;;;;;;5.30;2.90;;;;;;;16.60;91.59;98298.59;4981826;28;20245;-70
2021/07/18 01:42:54;;;;;;;4.07;3.00;;;;;;;16.57;91.51;98297.13;4984211;28;20779;-69
2021/07/18 01:45:22;;;;;;;3.33;2.67;;;;;;;16.56;91.46;98295.47;4980191;28;20590;-70
2021/07/18 01:47:50;;;;;;;5.33;3.10;;;;;;;16.51;92.00;98305.94;4981718;28;20658;-69
2021/07/18 01:50:19;;;;;;;4.67;2.90;;;;;;;16.46;91.90;98305.69;4980266;28;20602;-70
2021/07/18 01:52:47;;;;;;;7.40;2.80;;;;;;;16.44;91.80;98305.06;4980897;28;20224;-70
2021/07/18 01:55:18;;;;;;;3.87;2.90;;;;;;;16.37;92.32;98302.31;4980445;28;20212;-69
2021/07/18 01:57:49;;;;;;;3.00;2.70;;;;;;;16.38;91.92;98297.81;4987897;28;20228;-69
2021/07/18 02:00:17;;;;;;;5.20;2.87;;;;;;;16.29;92.59;98291.78;4980478;28;20217;-71
2021/07/18 02:02:46;;;;;;;3.10;2.33;;;;;;;16.27;92.39;98301.84;4984129;28;20624;-70
2021/07/18 02:05:16;;;;;;;3.53;3.10;;;;;;;16.24;92.66;98310.25;4975703;28;20292;-69
2021/07/18 02:07:44;;;;;;;3.23;2.43;;;;;;;16.18;92.83;98306.50;4979738;28;20225;-71
2021/07/18 02:10:13;;;;;;;2.80;2.40;;;;;;;16.17;93.01;98311.03;4980882;28;20205;-71
2021/07/18 02:12:43;;;;;;;4.50;3.43;;;;;;;16.14;93.43;98306.06;4983146;28;20213;-70
2021/07/18 02:15:15;;;;;;;3.50;2.73;;;;;;;16.07;93.43;98310.50;4980849;28;20203;-68
2021/07/18 02:17:42;;;;;;;3.70;2.70;;;;;;;16.02;93.64;98310.25;4984633;28;20217;-69
2021/07/18 02:20:12;;;;;;;3.07;2.47;;;;;;;16.00;93.61;98312.28;4981967;28;20233;-68
2021/07/18 02:22:44;;;;;;;3.60;2.87;;;;;;;15.99;93.77;98313.31;4984722;28;20707;-69
2021/07/18 02:25:13;;;;;;;6.30;2.67;;;;;;;15.94;93.87;98308.56;4984513;28;20292;-70
2021/07/18 02:27:41;;;;;;;4.63;2.80;;;;;;;15.93;94.38;98314.91;4980967;28;20773;-70
2021/07/18 02:30:12;;;;;;;3.77;3.10;;;;;;;15.91;94.22;98315.09;4982404;28;20197;-69
2021/07/18 02:32:42;;;;;;;4.87;3.00;;;;;;;15.84;94.49;98311.50;4981844;28;20201;-70
2021/07/18 02:35:12;;;;;;;4.40;2.50;;;;;;;15.84;94.85;98319.53;4983441;28;20210;-69
2021/07/18 02:37:41;;;;;;;2.57;2.37;;;;;;;15.81;95.29;98313.72;4981495;28;20217;-71
2021/07/18 02:40:10;;;;;;;3.87;2.73;;;;;;;15.75;95.41;98312.66;4980756;28;20630;-72
2021/07/18 02:42:38;;;;;;;4.47;2.70;;;;;;;15.71;95.77;98316.69;4978494;28;20218;-71
2021/07/18 02:45:07;;;;;;;5.30;2.63;;;;;;;15.65;96.08;98323.63;4983553;28;20592;-71
2021/07/18 02:47:36;;;;;;;3.47;3.03;;;;;;;15.53;96.90;98325.13;4982593;28;20814;-69
2021/07/18 02:50:05;;;;;;;3.40;2.60;;;;;;;15.53;96.89;98328.63;4984253;28;20225;-71
2021/07/18 02:52:33;;;;;;;3.03;2.57;;;;;;;15.54;96.92;98318.78;4983521;28;20209;-68
2021/07/18 02:55:01;;;;;;;6.20;2.80;;;;;;;15.46;97.55;98325.88;4981662;28;20260;-69
2021/07/18 02:57:29;;;;;;;3.10;2.83;;;;;;;15.45;97.34;98324.22;4985370;28;20371;-68
2021/07/18 02:59:57;;;;;;;2.40;2.20;;;;;;;15.36;97.99;98327.22;4983569;28;20225;-70
2021/07/18 03:02:25;;;;;;;3.30;2.77;;;;;;;15.37;98.20;98331.53;4982131;28;21028;-69
2021/07/18 03:04:53;;;;;;;2.70;2.50;;;;;;;15.38;98.22;98335.84;4980898;28;20226;-69
2021/07/18 03:07:22;;;;;;;7.93;2.77;;;;;;;15.38;98.12;98331.34;4983272;28;20209;-69
2021/07/18 03:09:50;;;;;;;6.60;2.87;;;;;;;15.29;98.87;98330.59;4981916;28;20232;-68
2021/07/18 03:12:18;;;;;;;4.43;2.73;;;;;;;15.22;99.45;98335.03;4981996;28;20847;-68
2021/07/18 03:14:46;;;;;;;3.10;2.70;;;;;;;15.18;99.92;98331.09;4987251;28;20229;-69
2021/07/18 03:17:14;;;;;;;3.17;2.87;;;;;;;15.16;99.78;98338.44;4986191;28;20563;-68
2021/07/18 03:19:42;;;;;;;3.57;3.30;;;;;;;15.11;99.94;98341.66;4987434;28;20212;-70
2021/07/18 03:22:10;;;;;;;2.53;2.33;;;;;;;15.09;100.00;98334.88;4988903;28;20213;-69
2021/07/18 03:24:39;;;;;;;2.93;2.50;;;;;;;15.05;100.00;98327.22;4986005;28;20222;-68
2021/07/18 03:27:07;;;;;;;6.73;2.93;;;;;;;14.98;100.00;98331.66;4988805;28;20221;-70
2021/07/18 03:29:35;;;;;;;6.00;2.80;;;;;;;14.96;100.00;98328.31;4991350;28;20206;-70
2021/07/18 03:32:04;;;;;;;5.70;3.10;;;;;;;14.98;100.00;98337.00;4985736;28;20928;-70
2021/07/18 03:34:32;;;;;;;4.97;2.80;;;;;;;14.91;100.00;98328.03;4984023;28;20543;-69
2021/07/18 03:37:00;;;;;;;2.43;2.20;;;;;;;14.87;100.00;98338.28;4985521;28;20339;-69
2021/07/18 03:39:28;;;;;;;5.07;2.70;;;;;;;14.86;100.00;98333.09;4988413;28;20206;-70
2021/07/18 03:41:58;;;;;;;4.33;3.17;;;;;;;14.85;100.00;98332.28;4985181;28;20233;-69
2021/07/18 03:44:26;;;;;;;3.70;2.40;;;;;;;14.85;100.00;98336.78;4986868;28;20221;-69
2021/07/18 03:46:54;;;;;;;4.10;2.57;;;;;;;14.81;100.00;98333.69;4985736;28;20640;-68
2021/07/18 03:49:22;;;;;;;4.83;3.60;;;;;;;14.78;100.00;98338.53;4986520;28;20210;-70
2021/07/18 03:51:50;;;;;;;5.67;2.40;;;;;;;14.77;100.00;98329.69;4982773;28;20576;-69
2021/07/18 03:54:18;;;;;;;3.70;2.93;;;;;;;14.82;100.00;98335.34;4987028;28;20226;-68
2021/07/18 03:56:46;;;;;;;3.73;2.97;;;;;;;14.79;100.00;98335.69;4987833;28;20275;-69
2021/07/18 03:59:15;;;;;;;2.70;2.50;;;;;;;14.81;100.00;98338.16;4986200;28;20205;-69
2021/07/18 04:01:43;;;;;;;3.70;2.70;;;;;;;14.76;100.00;98344.03;4985743;28;20238;-68
2021/07/18 04:04:11;;;;;;;5.50;2.80;;;;;;;14.72;100.00;98338.25;4981019;28;20232;-68
2021/07/18 04:06:39;;;;;;;4.67;2.87;;;;;;;14.76;100.00;98338.69;4982411;28;20213;-68
2021/07/18 04:09:07;;;;;;;4.60;2.90;;;;;;;14.75;100.00;98340.56;4987091;28;20209;-68
2021/07/18 04:11:35;;;;;;;2.77;2.57;;;;;;;14.73;100.00;98339.06;4981436;28;20690;-68
2021/07/18 04:14:03;;;;;;;6.43;3.00;;;;;;;14.80;100.00;98339.19;4985441;28;20225;-68
2021/07/18 04:16:32;;;;;;;2.67;2.47;;;;;;;14.75;100.00;98335.22;4982703;28;20308;-67
2021/07/18 04:19:00;;;;;;;10.50;3.57;;;;;;;14.73;100.00;98337.25;4972523;28;20241;-71
2021/07/18 04:21:28;;;;;;;2.73;2.53;;;;;;;14.69;100.00;98338.59;4984336;28;20837;-71
2021/07/18 04:23:56;;;;;;;2.90;2.60;;;;;;;14.72;100.00;98338.25;4984010;28;20281;-71
2021/07/18 04:26:24;;;;;;;2.67;2.47;;;;;;;14.72;100.00;98343.59;4981548;28;20281;-70
2021/07/18 04:28:52;;;;;;;3.27;2.80;;;;;;;14.65;100.00;98341.78;4986303;28;20585;-71
2021/07/18 04:31:20;;;;;;;3.70;2.60;;;;;;;14.69;100.00;98343.94;4983254;28;20202;-69
2021/07/18 04:33:50;;;;;;;4.80;2.60;;;;;;;14.64;100.00;98340.13;4982350;28;20316;-70
2021/07/18 04:36:19;;;;;;;3.60;2.20;;;;;;;14.73;100.00;98341.75;4982589;28;20802;-71
2021/07/18 04:38:50;;;;;;;2.63;2.27;;;;;;;14.76;100.00;98349.38;4979761;28;20293;-69
2021/07/18 04:41:18;;;;;;;3.00;2.77;;;;;;;14.79;100.00;98345.53;4985918;28;20228;-72
2021/07/18 04:43:47;;;;;;;5.50;3.57;;;;;;;14.86;100.00;98344.63;4980764;28;20248;-70
2021/07/18 04:46:15;;;;;;;3.73;2.77;;;;;;;14.90;100.00;98356.59;4983462;28;20209;-71
2021/07/18 04:48:43;;;;;;;3.30;3.00;;;;;;;14.99;100.00;98351.16;4981080;28;20296;-71
2021/07/18 04:51:12;;;;;;;5.23;3.27;;;;;;;15.03;100.00;98350.63;4982864;28;20206;-71
2021/07/18 04:53:40;;;;;;;3.93;2.80;;;;;;;15.07;100.00;98352.91;4985479;28;20230;-69
2021/07/18 04:56:08;;;;;;;3.60;2.90;;;;;;;15.20;100.00;98355.75;4980824;28;20209;-71
2021/07/18 04:58:37;;;;;;;5.30;3.00;;;;;;;15.22;100.00;98352.91;4983685;28;20225;-71
2021/07/18 05:01:07;;;;;;;3.87;2.60;;;;;;;15.29;100.00;98364.50;4982908;28;20233;-71
2021/07/18 05:03:35;;;;;;;3.27;2.80;;;;;;;15.32;100.00;98362.25;4979897;28;20745;-72
2021/07/18 05:06:05;;;;;;;3.13;2.83;;;;;;;15.36;100.00;98369.94;4985769;28;20748;-68
2021/07/18 05:08:35;;;;;;;2.70;2.50;;;;;;;15.46;99.35;98375.81;4974230;28;20213;-70
2021/07/18 05:11:04;;;;;;;3.53;3.27;;;;;;;15.60;98.76;98372.28;4985196;28;20586;-69
2021/07/18 05:13:32;;;;;;;4.50;3.40;;;;;;;15.57;98.22;98367.31;4980655;28;20229;-70
2021/07/18 05:16:00;;;;;;;2.50;2.30;;;;;;;15.63;97.91;98363.06;4983442;28;20205;-69
2021/07/18 05:18:28;;;;;;;3.97;3.50;;;;;;;15.68;98.08;98373.16;4982020;28;20212;-69
2021/07/18 05:20:56;;;;;;;7.07;3.17;;;;;;;15.75;97.71;98377.59;4980641;28;20230;-69
2021/07/18 05:23:24;;;;;;;4.87;2.87;;;;;;;15.86;96.99;98370.94;4980807;28;20550;-70
2021/07/18 05:25:53;;;;;;;4.30;2.90;;;;;;;15.84;97.52;98375.63;4980846;28;20210;-71
2021/07/18 05:28:21;;;;;;;6.90;3.23;;;;;;;16.09;95.71;98379.81;4982079;28;20513;-69
2021/07/18 05:30:49;;;;;;;4.40;2.80;;;;;;;16.02;96.46;98385.94;4983771;28;20701;-69
2021/07/18 05:33:17;;;;;;;6.53;3.20;;;;;;;16.14;95.83;98386.28;4986542;28;20228;-69
2021/07/18 05:35:45;;;;;;;4.70;3.23;;;;;;;16.26;95.05;98388.44;4981748;28;20486;-69
2021/07/18 05:38:13;;;;;;;4.10;2.47;;;;;;;16.34;94.53;98382.94;4987123;28;20563;-70
2021/07/18 05:40:41;;;;;;;3.87;3.57;;;;;;;16.23;95.03;98378.94;4980591;28;20304;-69
2021/07/18 05:43:10;;;;;;;2.77;2.23;;;;;;;16.32;94.11;98379.63;4980834;28;20641;-69
2021/07/18 05:45:38;;;;;;;3.13;2.87;;;;;;;16.34;94.07;98377.59;4979482;28;20209;-70
2021/07/18 05:48:07;;;;;;;7.80;3.30;;;;;;;16.39;93.88;98385.06;4980146;28;20210;-70
2021/07/18 05:50:35;;;;;;;6.00;3.47;;;;;;;16.38;93.96;98394.91;4978882;28;20236;-69
2021/07/18 05:53:03;;;;;;;3.57;2.53;;;;;;;16.40;93.90;98392.88;4978919;28;20259;-69
2021/07/18 05:55:31;;;;;;;3.40;3.03;;;;;;;16.40;93.79;98400.06;4980534;28;20205;-68
2021/07/18 05:57:59;;;;;;;3.53;3.20;;;;;;;16.60;93.17;98400.25;4982878;28;20519;-71
2021/07/18 06:00:28;;;;;;;6.40;2.83;;;;;;;16.68;92.86;98402.78;4980595;28;20217;-69
2021/07/18 06:02:56;;;;;;;5.03;3.13;;;;;;;16.75;92.57;98395.63;4983318;28;20718;-69
2021/07/18 06:05:24;;;;;;;3.43;2.97;;;;;;;16.79;91.79;98398.75;4983322;28;20845;-70
2021/07/18 06:07:52;;;;;;;4.03;2.77;;;;;;;16.95;91.49;98405.66;4982537;28;20216;-71
2021/07/18 06:10:20;;;;;;;4.93;3.40;;;;;;;16.95;91.38;98396.78;4979094;28;20461;-69
2021/07/18 06:12:48;;;;;;;3.80;3.13;;;;;;;17.07;90.87;98396.09;4979316;28;20276;-71
2021/07/18 06:15:16;;;;;;;5.10;3.23;;;;;;;17.18;90.04;98396.56;4978957;28;20220;-69
2021/07/18 06:17:46;;;;;;;4.53;3.43;;;;;;;17.17;90.70;98397.59;4981866;28;20205;-69
2021/07/18 06:20:14;;;;;;;5.20;3.30;;;;;;;17.07;90.32;98397.97;4977844;28;20205;-70
2021/07/18 06:22:42;;;;;;;3.73;3.43;;;;;;;17.07;91.80;98403.31;4979922;28;20773;-69
2021/07/18 06:25:11;;;;;;;5.27;3.00;;;;;;;17.30;89.35;98407.56;4984669;28;20213;-69
2021/07/18 06:27:40;;;;;;;8.23;3.53;;;;;;;17.32;89.38;98406.34;4979289;28;20567;-71
2021/07/18 06:30:09;;;;;;;3.63;3.30;;;;;;;17.53;88.60;98401.09;4975028;28;20209;-70
2021/07/18 06:32:37;;;;;;;4.43;3.37;;;;;;;17.58;88.56;98399.44;4981304;28;20225;-69
2021/07/18 06:35:08;;;;;;;4.97;3.53;;;;;;;17.52;88.42;98402.94;4975386;28;20291;-69
2021/07/18 06:37:36;;;;;;;3.90;3.60;;;;;;;17.56;87.71;98404.19;4975970;28;20209;-70
2021/07/18 06:40:05;;;;;;;8.27;3.87;;;;;;;17.53;87.60;98401.91;4981768;28;20226;-68
2021/07/18 06:42:34;;;;;;;8.70;3.67;;;;;;;17.63;88.10;98402.38;4978093;28;20225;-70
2021/07/18 06:45:02;;;;;;;3.77;3.47;;;;;;;17.79;87.52;98401.19;4979360;28;20208;-69
2021/07/18 06:47:30;;;;;;;3.80;3.50;;;;;;;17.89;86.71;98410.72;4979921;28;20946;-70
2021/07/18 06:49:58;;;;;;;4.00;3.40;;;;;;;17.88;85.69;98406.38;4984152;28;20238;-72
2021/07/18 06:52:27;;;;;;;3.30;3.00;;;;;;;18.04;86.09;98402.53;4984858;28;20209;-70
2021/07/18 06:54:55;;;;;;;3.80;3.40;;;;;;;18.17;84.30;98405.25;4985589;28;20218;-71
2021/07/18 06:57:23;;;;;;;8.93;3.67;;;;;;;18.26;83.42;98405.06;4984545;28;20393;-68
2021/07/18 06:59:51;;;;;;;3.70;3.40;;;;;;;18.14;83.88;98415.53;4989026;28;20206;-69
2021/07/18 07:02:19;;;;;;;3.20;3.00;;;;;;;18.13;83.95;98413.88;4984887;28;20846;-71
2021/07/18 07:04:47;;;;;;;3.80;3.43;;;;;;;18.27;84.05;98410.22;4989682;28;20371;-69
2021/07/18 07:07:15;;;;;;;3.53;3.23;;;;;;;18.41;82.99;98415.59;4985111;28;20213;-70
2021/07/18 07:09:44;;;;;;;4.40;3.27;;;;;;;18.34;82.57;98419.09;4980378;28;20210;-69
2021/07/18 07:12:12;;;;;;;6.90;3.60;;;;;;;18.36;83.20;98418.88;4988194;28;20208;-68
2021/07/18 07:14:40;;;;;;;8.97;3.83;;;;;;;18.61;83.12;98412.94;4984073;28;20239;-68
2021/07/18 07:17:08;;;;;;;5.03;3.97;;;;;;;18.64;80.81;98410.69;4984913;28;20597;-70
2021/07/18 07:19:36;;;;;;;5.40;4.17;;;;;;;18.61;82.48;98418.31;4982324;28;20217;-68
2021/07/18 07:22:05;;;;;;;4.93;3.73;;;;;;;18.50;81.82;98425.94;4978816;28;20224;-69
2021/07/18 07:24:33;;;;;;;3.83;3.40;;;;;;;18.42;82.62;98420.78;4980969;28;20781;-67
2021/07/18 07:27:02;;;;;;;6.33;3.60;;;;;;;18.48;82.38;98421.78;4983824;28;20213;-69
2021/07/18 07:29:30;;;;;;;3.90;3.50;;;;;;;18.72;81.09;98414.19;4986195;28;20216;-70
2021/07/18 07:31:58;;;;;;;3.93;3.40;;;;;;;18.62;81.78;98411.91;4986076;28;20307;-69
2021/07/18 07:34:27;;;;;;;3.77;3.40;;;;;;;18.44;82.16;98417.88;4983690;28;20225;-69
2021/07/18 07:36:55;;;;;;;5.07;3.93;;;;;;;18.60;82.70;98405.91;4983417;28;20557;-70
2021/07/18 07:39:23;;;;;;;3.80;3.40;;;;;;;18.69;82.01;98411.91;4983562;28;20217;-68
2021/07/18 07:41:51;;;;;;;8.80;3.50;;;;;;;18.90;81.75;98425.09;4984330;28;20300;-69
2021/07/18 07:44:20;;;;;;;6.00;3.60;;;;;;;19.05;81.45;98427.59;4984155;28;20245;-69
2021/07/18 07:46:49;;;;;;;4.20;3.80;;;;;;;18.98;79.77;98429.47;4983421;28;20217;-70
2021/07/18 07:49:17;;;;;;;4.07;3.70;;;;;;;18.72;81.08;98427.59;4983732;28;20209;-69
2021/07/18 07:51:45;;;;;;;6.40;3.70;;;;;;;18.62;81.29;98420.78;4985915;28;20606;-69
2021/07/18 07:54:13;;;;;;;3.77;3.47;;;;;;;18.70;81.44;98422.44;4982132;28;20224;-69
2021/07/18 07:56:41;;;;;;;5.93;3.73;;;;;;;19.11;79.98;98431.31;4986911;28;20562;-70
2021/07/18 07:59:09;;;;;;;4.73;4.33;;;;;;;18.85;79.48;98432.16;4980249;28;20569;-69
2021/07/18 08:01:38;;;;;;;5.63;3.97;;;;;;;19.19;79.37;98424.91;4979339;28;20217;-68
2021/07/18 08:04:06;;;;;;;6.03;3.60;;;;;;;19.37;78.75;98422.38;4981753;28;20232;-70
2021/07/18 08:06:36;;;;;;;5.93;3.80;;;;;;;19.43;77.85;98411.81;4980127;28;20209;-69
2021/07/18 08:09:05;;;;;;;4.40;3.60;;;;;;;19.33;78.79;98413.09;4982576;28;20558;-70
2021/07/18 08:11:33;;;;;;;4.33;3.60;;;;;;;19.26;78.49;98414.97;4982697;28;20476;-68
2021/07/18 08:14:01;;;;;;;6.80;4.07;;;;;;;19.45;78.04;98410.59;4985175;28;20232;-69
2021/07/18 08:16:29;;;;;;;4.77;3.80;;;;;;;19.27;78.24;98411.25;4983384;28;20604;-69
2021/07/18 08:18:58;;;;;;;5.53;4.00;;;;;;;19.13;78.90;98420.34;4987818;28;20205;-69
2021/07/18 08:21:26;;;;;;;7.93;3.80;;;;;;;19.51;78.87;98414.31;4981456;28;20217;-69
2021/07/18 08:24:08;;;;;;;5.60;3.70;;;;;;;19.72;76.87;98415.03;4987841;28;20241;-70
2021/07/18 08:26:36;;;;;;;5.83;4.07;;;;;;;19.79;77.60;98413.97;4981741;28;20245;-69
2021/07/18 08:29:04;;;;;;;5.53;3.87;;;;;;;19.93;75.15;98406.72;4985479;28;20796;-69
2021/07/18 08:31:32;;;;;;;5.87;3.70;;;;;;;19.99;76.48;98414.97;4981950;28;20218;-71
2021/07/18 08:34:02;;;;;;;3.90;3.33;;;;;;;20.28;74.46;98412.72;4987069;28;20225;-71
2021/07/18 08:36:30;;;;;;;5.73;3.90;;;;;;;20.23;73.83;98419.56;4984823;28;20214;-67
2021/07/18 08:38:58;;;;;;;5.87;3.50;;;;;;;20.25;73.34;98408.59;4985652;28;20213;-70
2021/07/18 08:41:26;;;;;;;6.63;3.53;;;;;;;20.13;75.19;98407.66;4982652;28;20210;-69
2021/07/18 08:43:54;;;;;;;3.77;3.47;;;;;;;20.26;74.32;98412.94;4983748;28;20240;-71
2021/07/18 08:46:22;;;;;;;4.27;3.90;;;;;;;20.19;73.72;98406.78;4985034;28;20213;-70
2021/07/18 08:48:50;;;;;;;7.37;3.87;;;;;;;20.13;74.75;98413.84;4984160;28;20256;-70
2021/07/18 08:51:19;;;;;;;4.00;3.70;;;;;;;20.50;73.29;98410.50;4983044;28;20206;-70
2021/07/18 08:53:50;;;;;;;4.27;3.97;;;;;;;20.54;71.19;98409.84;4980177;28;20570;-70
2021/07/18 08:56:18;;;;;;;4.63;3.57;;;;;;;20.41;73.00;98412.63;4986228;28;20213;-69
2021/07/18 08:58:46;;;;;;;3.80;3.43;;;;;;;20.26;71.70;98412.94;4981244;28;20839;-68
2021/07/18 09:01:14;;;;;;;7.10;3.77;;;;;;;20.31;72.28;98413.09;4989468;28;20209;-69
2021/07/18 09:03:42;;;;;;;5.33;3.60;;;;;;;20.61;71.73;98406.25;4981383;28;20792;-70
2021/07/18 09:06:11;;;;;;;4.67;3.60;;;;;;;20.88;71.63;98408.78;4982973;28;20220;-68
2021/07/18 09:08:45;;;;;;;4.10;3.63;;;;;;;21.18;70.71;98402.69;4987484;28;20217;-71
2021/07/18 09:11:21;;;;;;;6.00;3.33;;;;;;;21.29;68.77;98404.63;4979654;28;20304;-70
2021/07/18 09:13:57;;;;;;;3.93;3.53;;;;;;;21.01;69.44;98394.34;4982662;28;20225;-68
2021/07/18 09:16:27;;;;;;;5.27;3.60;;;;;;;21.04;68.49;98400.13;4984138;28;20236;-69
2021/07/18 09:18:55;;;;;;;3.50;3.23;;;;;;;20.91;68.71;98395.69;4981899;28;20210;-71
2021/07/18 09:21:23;;;;;;;4.73;3.37;;;;;;;21.06;69.22;98403.44;4982821;28;20373;-71
2021/07/18 09:23:52;;;;;;;4.27;3.87;;;;;;;20.91;68.08;98394.84;4983550;28;20658;-69
2021/07/18 09:26:22;;;;;;;4.37;4.00;;;;;;;20.71;68.88;98398.53;4980788;28;20206;-69
2021/07/18 09:28:50;;;;;;;3.90;3.60;;;;;;;21.13;69.21;98394.44;4986794;28;20574;-72
2021/07/18 09:31:38;;;;;;;4.23;3.67;;;;;;;21.30;67.54;98389.31;4973958;28;20229;-70
2021/07/18 09:34:12;;;;;;;5.70;4.53;;;;;;;21.68;66.03;98397.16;4973258;28;20280;-71
2021/07/18 09:36:40;;;;;;;5.80;3.93;;;;;;;21.46;64.78;98395.97;4981216;28;20201;-69
2021/07/18 09:39:11;;;;;;;6.00;4.10;;;;;;;21.28;67.31;98394.91;4985873;28;20202;-70
2021/07/18 09:41:40;;;;;;;5.23;4.17;;;;;;;21.28;67.12;98396.78;4980080;28;20993;-71
2021/07/18 09:44:08;;;;;;;3.73;3.43;;;;;;;21.49;66.15;98396.31;4976334;28;20602;-71
2021/07/18 09:46:37;;;;;;;4.37;3.97;;;;;;;21.65;64.12;98403.00;4973797;28;20225;-70
2021/07/18 09:49:05;;;;;;;5.60;3.60;;;;;;;21.82;65.55;98397.00;4984069;28;20266;-69
2021/07/18 09:51:36;;;;;;;3.70;3.37;;;;;;;21.70;63.96;98396.94;4973683;28;20220;-71
2021/07/18 09:54:10;;;;;;;6.13;3.73;;;;;;;21.61;64.03;98388.31;4975456;28;20226;-71
2021/07/18 09:56:38;;;;;;;5.13;3.63;;;;;;;22.00;64.06;98389.91;4983213;28;20206;-71
2021/07/18 09:59:06;;;;;;;3.57;3.37;;;;;;;22.04;61.11;98393.81;4980301;28;20609;-69
2021/07/18 10:01:34;;;;;;;4.80;3.63;;;;;;;21.88;61.29;98393.41;4985567;28;20206;-70
2021/07/18 10:04:04;;;;;;;5.43;3.57;;;;;;;22.01;62.52;98386.16;4981614;28;20265;-71
2021/07/18 10:06:36;;;;;;;3.80;3.40;;;;;;;22.17;60.88;98384.69;4980157;28;20296;-71
2021/07/18 10:09:09;;;;;;;3.77;3.53;;;;;;;22.06;61.53;98378.19;4982959;28;20206;-71
2021/07/18 10:11:39;;;;;;;5.17;4.60;;;;;;;22.17;62.27;98377.44;4981515;28;20448;-70
2021/07/18 10:14:07;;;;;;;4.77;4.23;;;;;;;22.24;58.79;98380.84;4979775;28;20752;-70
2021/07/18 10:16:35;;;;;;;6.57;4.53;;;;;;;22.17;58.68;98360.41;4981672;28;20205;-68
2021/07/18 10:19:04;;;;;;;5.13;4.20;;;;;;;22.29;57.25;98360.44;4978299;28;20206;-67
2021/07/18 10:21:32;;;;;;;8.13;4.33;;;;;;;22.37;57.61;98368.19;4982524;28;20210;-70
2021/07/18 10:24:00;;;;;;;4.73;4.33;;;;;;;22.40;60.58;98351.53;4980453;28;20244;-71
2021/07/18 10:26:30;;;;;;;4.90;4.50;;;;;;;22.85;58.83;98363.69;4981661;28;20487;-70
2021/07/18 10:29:00;;;;;;;4.23;3.87;;;;;;;22.83;56.46;98357.72;4988147;28;20585;-71
2021/07/18 10:31:31;;;;;;;4.80;4.40;;;;;;;23.15;56.40;98357.34;4977519;28;20221;-69
2021/07/18 10:34:02;;;;;;;4.40;4.10;;;;;;;23.03;55.67;98360.06;4976660;28;20292;-71
2021/07/18 10:36:31;;;;;;;4.47;4.17;;;;;;;23.07;54.70;98349.56;4980810;28;20205;-69
2021/07/18 10:38:58;;;;;;;4.37;3.97;;;;;;;23.00;54.32;98355.13;4980540;28;20206;-69
2021/07/18 10:41:41;;;;;;;5.33;3.90;;;;;;;22.95;54.28;98357.72;4981651;28;20212;-70
2021/07/18 10:44:17;;;;;;;5.07;4.07;;;;;;;23.01;54.13;98364.03;4976216;28;20236;-69
2021/07/18 10:46:54;;;;;;;4.33;3.93;;;;;;;23.47;53.77;98346.09;4978831;28;20211;-69
2021/07/18 10:49:48;;;;;;;5.57;5.07;;;;;;;23.59;51.87;98359.59;4978905;28;20213;-69
2021/07/18 10:52:17;;;;;;;5.10;4.70;;;;;;;23.99;49.68;98352.50;4977884;28;20207;-70
2021/07/18 10:54:45;;;;;;;4.87;4.13;;;;;;;25.10;46.15;98355.66;4980083;28;20237;-69
2021/07/18 10:57:25;;;;;;;5.00;4.60;;;;;;;25.18;47.17;98356.28;4978858;28;20206;-70
2021/07/18 10:59:55;;;;;;;6.13;4.77;;;;;;;25.51;46.39;98358.09;4980120;28;20585;-69
2021/07/18 11:02:33;;;;;;;4.20;3.90;;;;;;;26.86;42.39;98354.78;4979240;28;20619;-71
2021/07/18 11:05:03;;;;;;;5.90;4.90;;;;;;;25.83;44.50;98356.56;4975077;28;20794;-69
2021/07/18 11:07:36;;;;;;;5.63;4.57;;;;;;;26.50;41.96;98359.09;4981554;28;20619;-69
2021/07/18 11:10:17;;;;;;;6.33;5.80;;;;;;;26.97;41.42;98347.50;4979483;28;20342;-70
2021/07/18 11:12:46;;;;;;;7.97;5.77;;;;;;;26.57;43.45;98360.50;4975554;28;20538;-69
2021/07/18 11:15:32;;;;;;;5.90;5.40;;;;;;;27.55;39.88;98356.78;4975976;28;20202;-71
2021/07/18 11:18:02;;;;;;;6.23;5.73;;;;;;;27.01;40.91;98345.88;4975606;28;20683;-71
2021/07/18 11:20:54;;;;;;;6.23;5.63;;;;;;;27.92;38.63;98349.50;4974865;28;20237;-69
2021/07/18 11:23:28;;;;;;;7.03;6.33;;;;;;;27.18;40.16;98346.78;4976998;28;20225;-69
2021/07/18 11:26:02;;;;;;;8.10;6.07;;;;;;;26.46;42.18;98341.66;4977868;28;20233;-70
2021/07/18 11:28:44;;;;;;;6.97;6.27;;;;;;;26.42;41.98;98346.81;4979826;28;20211;-69
2021/07/18 11:31:35;;;;;;;6.67;6.17;;;;;;;25.88;43.10;98353.88;4978723;28;20205;-69
2021/07/18 11:34:11;;;;;;;6.07;5.47;;;;;;;26.53;41.67;98342.28;4981148;28;20229;-69
2021/07/18 11:36:56;;;;;;;7.00;5.63;;;;;;;25.79;42.86;98341.84;4981549;28;20201;-69
2021/07/18 11:39:27;;;;;;;6.10;5.63;;;;;;;26.00;43.41;98351.03;4983700;28;20862;-68
2021/07/18 11:41:55;;;;;;;7.00;6.30;;;;;;;25.95;43.18;98337.41;4985309;28;20225;-68